createdAt,value
2023-08-21T00:00:37.070Z,100614.31
2023-08-21T00:03:39.338Z,100624.63
2023-08-21T00:06:41.579Z,100623.03
2023-08-21T00:09:43.840Z,100628.84
2023-08-21T00:12:46.084Z,100620.41
2023-08-21T00:15:48.547Z,100619.28
2023-08-21T00:18:50.777Z,100615.09
2023-08-21T00:21:53.012Z,100621.88
2023-08-21T00:24:55.192Z,100627.38
2023-08-21T00:27:57.389Z,100636.41
2023-08-21T00:31:06.615Z,100625.09
2023-08-21T00:34:08.888Z,100633.19
2023-08-21T00:37:12.145Z,100630.59
2023-08-21T00:40:14.703Z,100635.75
2023-08-21T00:43:17.000Z,100639.63
2023-08-21T00:46:19.248Z,100643.19
2023-08-21T00:49:22.039Z,100648.34
2023-08-21T00:52:24.442Z,100641.22
2023-08-21T00:55:26.764Z,100635.91
2023-08-21T00:58:29.018Z,100641.72
2023-08-21T01:01:31.532Z,100639.31
2023-08-21T01:04:33.824Z,100642.19
2023-08-21T01:07:41.913Z,100640.94
2023-08-21T01:11:10.289Z,100644.47
2023-08-21T01:14:24.510Z,100652.53
2023-08-21T01:17:26.914Z,100652.53
2023-08-21T01:20:29.518Z,100649.31
2023-08-21T01:23:36.054Z,100651.25
2023-08-21T01:26:38.228Z,100646.22
2023-08-21T01:29:40.743Z,100649.47
2023-08-21T01:33:07.024Z,100660.59
2023-08-21T01:36:12.191Z,100650.56
2023-08-21T01:39:14.624Z,100649.78
2023-08-21T01:42:16.819Z,100646.72
2023-08-21T01:45:19.126Z,100638.50
2023-08-21T01:48:21.370Z,100648.00
2023-08-21T01:51:23.708Z,100652.19
2023-08-21T01:54:25.988Z,100653.34
2023-08-21T01:57:28.207Z,100655.59
2023-08-21T02:00:30.439Z,100653.00
2023-08-21T02:03:32.746Z,100649.63
2023-08-21T02:06:35.014Z,100658.66
2023-08-21T02:09:37.208Z,100660.28
2023-08-21T02:12:41.458Z,100660.09
2023-08-21T02:15:44.880Z,100665.25
2023-08-21T02:18:47.521Z,100666.72
2023-08-21T02:21:49.725Z,100670.59
2023-08-21T02:24:51.932Z,100652.22
2023-08-21T02:27:57.556Z,100658.03
2023-08-21T02:31:00.687Z,100658.97
2023-08-21T02:34:02.924Z,100664.13
2023-08-21T02:37:06.210Z,100663.03
2023-08-21T02:40:09.766Z,100662.03
2023-08-21T02:43:12.039Z,100662.19
2023-08-21T02:46:14.405Z,100670.72
2023-08-21T02:49:16.614Z,100669.13
2023-08-21T02:52:19.134Z,100666.97
2023-08-21T02:55:21.974Z,100668.44
2023-08-21T02:58:24.297Z,100665.19
2023-08-21T03:01:26.531Z,100648.56
2023-08-21T03:04:28.757Z,100667.13
2023-08-21T03:07:30.978Z,100658.56
2023-08-21T03:10:34.961Z,100659.72
2023-08-21T03:13:37.186Z,100661.31
2023-08-21T03:16:39.443Z,100660.19
2023-08-21T03:19:41.813Z,100662.28
2023-08-21T03:22:44.339Z,100656.00
2023-08-21T03:25:46.656Z,100661.16
2023-08-21T03:28:48.945Z,100675.16
2023-08-21T03:31:51.490Z,100662.09
2023-08-21T03:34:53.732Z,100669.97
2023-08-21T03:37:56.343Z,100671.13
2023-08-21T03:41:00.038Z,100675.13
2023-08-21T03:44:02.482Z,100672.06
2023-08-21T03:47:04.800Z,100670.09
2023-08-21T03:50:10.670Z,100673.66
2023-08-21T03:53:13.162Z,100667.72
2023-08-21T03:56:15.412Z,100675.59
2023-08-21T03:59:17.653Z,100675.94
2023-08-21T04:02:19.838Z,100676.28
2023-08-21T04:05:22.071Z,100674.63
2023-08-21T04:08:24.321Z,100673.69
2023-08-21T04:11:26.923Z,100677.09
2023-08-21T04:14:29.116Z,100664.47
2023-08-21T04:17:31.362Z,100663.34
2023-08-21T04:20:33.684Z,100664.63
2023-08-21T04:23:35.895Z,100667.53
2023-08-21T04:26:38.157Z,100666.09
2023-08-21T04:29:40.745Z,100676.69
2023-08-21T04:32:43.437Z,100672.81
2023-08-21T04:35:45.681Z,100675.06
2023-08-21T04:38:48.104Z,100675.25
2023-08-21T04:41:50.805Z,100675.88
2023-08-21T04:44:54.576Z,100687.97
2023-08-21T04:47:58.560Z,100690.38
2023-08-21T04:51:01.510Z,100677.03
2023-08-21T04:54:03.954Z,100690.72
2023-08-21T04:57:07.029Z,100692.78
2023-08-21T05:00:10.892Z,100690.84
2023-08-21T05:03:16.510Z,100693.25
2023-08-21T05:06:21.043Z,100700.53
2023-08-21T05:09:23.412Z,100708.09
2023-08-21T05:12:27.099Z,100697.50
2023-08-21T05:15:29.310Z,100700.69
2023-08-21T05:18:31.869Z,100703.41
2023-08-21T05:21:34.151Z,100711.50
2023-08-21T05:24:36.497Z,100705.38
2023-08-21T05:27:41.208Z,100705.69
2023-08-21T05:30:43.377Z,100713.97
2023-08-21T05:33:46.337Z,100711.84
2023-08-21T05:36:49.979Z,100713.44
2023-08-21T05:39:52.452Z,100718.44
2023-08-21T05:42:54.697Z,100724.09
2023-08-21T05:45:57.200Z,100726.19
2023-08-21T05:48:59.914Z,100721.19
2023-08-21T05:52:02.195Z,100731.03
2023-08-21T05:55:05.866Z,100720.84
2023-08-21T05:58:08.694Z,100720.56
2023-08-21T06:01:10.988Z,100732.00
2023-08-21T06:04:13.472Z,100717.81
2023-08-21T06:07:18.508Z,100731.03
2023-08-21T06:10:20.840Z,100737.84
2023-08-21T06:13:23.200Z,100738.94
2023-08-21T06:16:29.292Z,100726.66
2023-08-21T06:19:31.560Z,100736.34
2023-08-21T06:22:33.900Z,100746.81
2023-08-21T06:25:36.226Z,100732.56
2023-08-21T06:28:38.715Z,100740.94
2023-08-21T06:31:40.994Z,100716.44
2023-08-21T06:34:43.215Z,100739.63
2023-08-21T06:37:45.441Z,100740.91
2023-08-21T06:40:47.717Z,100737.47
2023-08-21T06:43:49.954Z,100737.28
2023-08-21T06:46:54.362Z,100740.38
2023-08-21T06:49:56.660Z,100729.38
2023-08-21T06:52:58.848Z,100739.16
2023-08-21T06:56:01.327Z,100728.16
2023-08-21T06:59:03.694Z,100740.88
2023-08-21T07:02:06.701Z,100726.97
2023-08-21T07:05:11.958Z,100741.09
2023-08-21T07:08:14.932Z,100733.94
2023-08-21T07:11:18.382Z,100738.78
2023-08-21T07:14:20.824Z,100734.38
2023-08-21T07:17:23.040Z,100743.25
2023-08-21T07:20:25.300Z,100739.53
2023-08-21T07:23:27.574Z,100737.66
2023-08-21T07:26:30.010Z,100750.34
2023-08-21T07:29:32.226Z,100741.94
2023-08-21T07:32:34.500Z,100742.41
2023-08-21T07:35:37.191Z,100730.47
2023-08-21T07:38:46.258Z,100743.94
2023-08-21T07:51:27.114Z,100738.59
2023-08-21T07:54:29.408Z,100746.84
2023-08-21T07:57:31.759Z,100742.94
2023-08-21T08:00:34.063Z,100742.84
2023-08-21T08:03:36.586Z,100741.03
2023-08-21T08:06:39.357Z,100736.22
2023-08-21T08:09:44.455Z,100742.78
2023-08-21T08:12:46.688Z,100744.06
2023-08-21T08:15:49.038Z,100734.97
2023-08-21T08:18:51.387Z,100736.38
2023-08-21T08:21:53.735Z,100735.34
2023-08-21T08:24:55.976Z,100750.72
2023-08-21T08:27:58.246Z,100740.19
2023-08-21T08:31:01.522Z,100735.28
2023-08-21T08:34:03.814Z,100740.00
2023-08-21T08:37:06.010Z,100734.63
2023-08-21T08:40:08.984Z,100732.19
2023-08-21T08:43:13.122Z,100729.44
2023-08-21T08:46:16.058Z,100734.72
2023-08-21T08:49:18.696Z,100733.69
2023-08-21T08:52:21.157Z,100732.19
2023-08-21T08:55:23.668Z,100737.94
2023-08-21T08:58:25.905Z,100741.28
2023-08-21T09:01:28.390Z,100742.97
2023-08-21T09:04:30.801Z,100740.69
2023-08-21T09:07:33.165Z,100732.06
2023-08-21T09:10:37.543Z,100738.16
2023-08-21T09:13:40.152Z,100736.13
2023-08-21T09:17:02.087Z,100731.41
2023-08-21T09:20:11.410Z,100727.38
2023-08-21T09:23:17.905Z,100728.75
2023-08-21T09:26:25.929Z,100726.31
2023-08-21T09:29:28.413Z,100729.66
2023-08-21T09:32:30.669Z,100729.78
2023-08-21T09:35:34.185Z,100724.47
2023-08-21T09:38:36.735Z,100722.16
2023-08-21T09:41:39.957Z,100710.31
2023-08-21T09:44:44.296Z,100712.38
2023-08-21T09:47:46.833Z,100710.44
2023-08-21T09:50:49.134Z,100711.69
2023-08-21T09:53:51.711Z,100703.41
2023-08-21T09:56:54.436Z,100703.41
2023-08-21T09:59:57.270Z,100694.91
2023-08-21T10:03:08.639Z,100697.66
2023-08-21T10:06:11.769Z,100693.72
2023-08-21T10:09:14.181Z,100696.22
2023-08-21T10:12:17.651Z,100686.72
2023-08-21T10:15:20.366Z,100696.34
2023-08-21T10:18:31.271Z,100681.75
2023-08-21T10:21:37.461Z,100687.72
2023-08-21T10:24:39.789Z,100693.25
2023-08-21T10:27:43.748Z,100671.97
2023-08-21T10:30:48.697Z,100684.28
2023-08-21T10:33:50.962Z,100678.28
2023-08-21T10:37:06.955Z,100681.75
2023-08-21T10:40:13.345Z,100665.06
2023-08-21T10:43:47.968Z,100677.56
2023-08-21T10:46:53.988Z,100681.91
2023-08-21T10:50:01.441Z,100679.25
2023-08-21T10:53:03.849Z,100678.22
2023-08-21T10:56:11.294Z,100663.59
2023-08-21T10:59:51.659Z,100644.31
2023-08-21T11:02:56.790Z,100651.66
2023-08-21T11:06:08.218Z,100657.91
2023-08-21T11:09:14.248Z,100653.81
2023-08-21T11:12:19.225Z,100652.72
2023-08-21T11:15:23.748Z,100659.91
2023-08-21T11:18:38.972Z,100652.31
2023-08-21T11:21:41.225Z,100656.03
2023-08-21T11:24:44.419Z,100654.31
2023-08-21T11:27:46.840Z,100655.19
2023-08-21T11:30:49.779Z,100660.84
2023-08-21T11:33:52.441Z,100649.78
2023-08-21T11:36:54.766Z,100643.63
2023-08-21T11:39:59.208Z,100653.25
2023-08-21T11:43:02.590Z,100636.66
2023-08-21T11:46:06.309Z,100635.97
2023-08-21T11:49:08.570Z,100648.88
2023-08-21T11:52:12.458Z,100642.19
2023-08-21T11:55:14.635Z,100630.69
2023-08-21T11:58:19.314Z,100629.09
2023-08-21T12:01:22.235Z,100631.56
2023-08-21T12:04:25.691Z,100628.88
2023-08-21T12:07:27.947Z,100622.66
2023-08-21T12:10:30.683Z,100632.34
2023-08-21T12:13:35.512Z,100628.84
2023-08-21T12:16:38.664Z,100621.41
2023-08-21T12:19:41.053Z,100619.91
2023-08-21T12:22:45.894Z,100613.19
2023-08-21T12:25:48.110Z,100615.31
2023-08-21T12:28:51.118Z,100614.66
2023-08-21T12:31:53.490Z,100606.34
2023-08-21T12:34:55.736Z,100609.94
2023-08-21T12:37:59.422Z,100611.34
2023-08-21T12:41:03.841Z,100609.47
2023-08-21T12:44:09.701Z,100608.72
2023-08-21T12:47:11.916Z,100613.59
2023-08-21T12:50:14.609Z,100612.06
2023-08-21T12:53:16.988Z,100598.69
2023-08-21T12:56:19.417Z,100605.59
2023-08-21T12:59:21.669Z,100596.84
2023-08-21T13:02:24.438Z,100594.56
2023-08-21T13:05:27.324Z,100604.56
2023-08-21T13:08:29.497Z,100603.50
2023-08-21T13:11:31.858Z,100591.31
2023-08-21T13:14:34.050Z,100589.78
2023-08-21T13:17:36.829Z,100573.22
2023-08-21T13:20:39.176Z,100575.94
2023-08-21T13:23:41.383Z,100584.03
2023-08-21T13:26:43.659Z,100574.25
2023-08-21T13:29:47.412Z,100576.66
2023-08-21T13:32:49.772Z,100559.19
2023-08-21T13:35:52.051Z,100579.13
2023-08-21T13:38:56.474Z,100568.06
2023-08-21T13:41:58.717Z,100574.94
2023-08-21T13:45:00.942Z,100574.63
2023-08-21T13:48:05.178Z,100563.19
2023-08-21T13:51:07.506Z,100575.47
2023-08-21T13:54:09.754Z,100555.34
2023-08-21T13:57:12.042Z,100565.03
2023-08-21T14:00:14.753Z,100564.69
2023-08-21T14:03:17.081Z,100553.25
2023-08-21T14:06:19.436Z,100556.47
2023-08-21T14:09:21.690Z,100533.41
2023-08-21T14:12:23.936Z,100545.94
2023-08-21T14:15:26.283Z,100555.13
2023-08-21T14:18:28.560Z,100556.94
2023-08-21T14:21:31.016Z,100537.66
2023-08-21T14:24:33.671Z,100544.66
2023-08-21T14:27:36.266Z,100547.28
2023-08-21T14:30:38.938Z,100541.81
2023-08-21T14:33:41.176Z,100527.22
2023-08-21T14:36:43.681Z,100529.31
2023-08-21T14:39:45.868Z,100534.94
2023-08-21T14:42:48.066Z,100520.31
2023-08-21T14:45:50.373Z,100528.66
2023-08-21T14:48:55.685Z,100529.81
2023-08-21T14:51:57.896Z,100522.66
2023-08-21T14:55:00.211Z,100524.63
2023-08-21T14:58:08.204Z,100521.81
2023-08-21T15:01:11.723Z,100518.25
2023-08-21T15:04:14.010Z,100521.00
2023-08-21T15:07:16.248Z,100510.53
2023-08-21T15:10:18.484Z,100514.41
2023-08-21T15:13:20.799Z,100514.38
2023-08-21T15:16:23.122Z,100514.72
2023-08-21T15:19:25.451Z,100511.91
2023-08-21T15:22:27.736Z,100511.47
2023-08-21T15:25:30.007Z,100498.38
2023-08-21T15:28:32.208Z,100503.56
2023-08-21T15:31:34.529Z,100499.91
2023-08-21T15:34:36.765Z,100507.09
2023-08-21T15:37:38.983Z,100497.06
2023-08-21T15:40:44.973Z,100495.88
2023-08-21T15:43:47.487Z,100497.47
2023-08-21T15:46:50.054Z,100498.66
2023-08-21T15:49:52.326Z,100488.28
2023-08-21T15:52:54.579Z,100481.13
2023-08-21T15:55:56.792Z,100483.56
2023-08-21T15:58:59.028Z,100475.50
2023-08-21T16:02:01.246Z,100484.69
2023-08-21T16:05:05.282Z,100465.50
2023-08-21T16:08:07.669Z,100475.50
2023-08-21T16:11:10.028Z,100467.19
2023-08-21T16:14:14.200Z,100462.34
2023-08-21T16:17:17.866Z,100469.13
2023-08-21T16:20:20.293Z,100456.28
2023-08-21T16:23:22.552Z,100470.25
2023-08-21T16:26:25.045Z,100471.06
2023-08-21T16:29:27.340Z,100467.03
2023-08-21T16:32:29.618Z,100466.94
2023-08-21T16:35:31.819Z,100469.31
2023-08-21T16:38:34.382Z,100470.03
2023-08-21T16:41:36.596Z,100470.72
2023-08-21T16:44:38.818Z,100483.03
2023-08-21T16:47:41.407Z,100478.22
2023-08-21T16:50:43.691Z,100477.75
2023-08-21T16:53:45.965Z,100480.06
2023-08-21T16:56:48.187Z,100467.25
2023-08-21T16:59:50.620Z,100468.78
2023-08-21T17:02:53.118Z,100463.75
2023-08-21T17:05:55.408Z,100467.59
2023-08-21T17:08:57.694Z,100476.94
2023-08-21T17:11:59.893Z,100471.59
2023-08-21T17:15:04.300Z,100470.19
2023-08-21T17:18:06.934Z,100484.78
2023-08-21T17:21:09.147Z,100473.44
2023-08-21T17:24:11.341Z,100472.97
2023-08-21T17:27:13.533Z,100482.31
2023-08-21T17:30:15.919Z,100477.41
2023-08-21T17:33:18.145Z,100483.59
2023-08-21T17:36:20.372Z,100488.47
2023-08-21T17:39:22.622Z,100483.16
2023-08-21T17:42:24.869Z,100480.53
2023-08-21T17:45:27.019Z,100472.81
2023-08-21T17:48:29.426Z,100484.25
2023-08-21T17:51:31.636Z,100491.66
2023-08-21T17:54:33.856Z,100488.72
2023-08-21T17:57:37.880Z,100495.00
2023-08-21T18:00:40.898Z,100501.97
2023-08-21T18:03:43.411Z,100495.47
2023-08-21T18:06:45.642Z,100498.72
2023-08-21T18:09:47.824Z,100505.31
2023-08-21T18:12:50.045Z,100503.56
2023-08-21T18:15:52.396Z,100510.47
2023-08-21T18:18:54.593Z,100503.84
2023-08-21T18:21:56.817Z,100513.91
2023-08-21T18:24:59.030Z,100523.25
2023-08-21T18:28:01.271Z,100523.97
2023-08-21T18:31:04.050Z,100522.34
2023-08-21T18:34:06.342Z,100523.88
2023-08-21T18:37:09.679Z,100533.09
2023-08-21T18:40:12.414Z,100538.53
2023-08-21T18:43:14.691Z,100539.94
2023-08-21T18:46:17.856Z,100542.94
2023-08-21T18:49:20.083Z,100546.41
2023-08-21T18:52:22.296Z,100545.44
2023-08-21T18:55:24.479Z,100541.91
2023-08-21T18:58:26.676Z,100546.97
2023-08-21T19:01:29.023Z,100552.75
2023-08-21T19:04:31.873Z,100549.53
2023-08-21T19:07:34.000Z,100548.72
2023-08-21T19:10:36.631Z,100539.88
2023-08-21T19:13:39.015Z,100543.34
2023-08-21T19:16:41.487Z,100536.69
2023-08-21T19:19:43.839Z,100535.94
2023-08-21T19:22:46.047Z,100545.44
2023-08-21T19:25:48.231Z,100550.16
2023-08-21T19:28:50.526Z,100547.28
2023-08-21T19:31:52.757Z,100547.44
2023-08-21T19:34:56.761Z,100543.22
2023-08-21T19:37:58.997Z,100554.34
2023-08-21T19:41:01.212Z,100562.72
2023-08-21T19:44:03.622Z,100566.88
2023-08-21T19:47:06.028Z,100561.91
2023-08-21T19:50:08.633Z,100564.81
2023-08-21T19:53:10.856Z,100572.59
2023-08-21T19:56:13.089Z,100559.28
2023-08-21T19:59:15.324Z,100572.72
2023-08-21T20:02:17.596Z,100567.22
2023-08-21T20:05:19.861Z,100552.84
2023-08-21T20:08:24.620Z,100553.56
2023-08-21T20:11:28.484Z,100551.97
2023-08-21T20:14:30.754Z,100560.22
2023-08-21T20:17:33.657Z,100562.53
2023-08-21T20:20:35.905Z,100556.91
2023-08-21T20:23:38.159Z,100569.41
2023-08-21T20:26:40.351Z,100574.34
2023-08-21T20:29:42.588Z,100577.44
2023-08-21T20:32:45.152Z,100571.00
2023-08-21T20:35:47.450Z,100569.84
2023-08-21T20:38:50.326Z,100573.06
2023-08-21T20:41:52.538Z,100576.63
2023-08-21T20:44:54.848Z,100576.06
2023-08-21T20:47:57.145Z,100571.22
2023-08-21T20:50:59.548Z,100573.38
2023-08-21T20:54:01.822Z,100562.13
2023-08-21T20:57:04.455Z,100575.31
2023-08-21T21:00:10.014Z,100573.56
2023-08-21T21:03:12.286Z,100573.22
2023-08-21T21:06:14.556Z,100577.56
2023-08-21T21:09:16.740Z,100577.09
2023-08-21T21:12:19.111Z,100582.81
2023-08-21T21:15:21.325Z,100581.78
2023-08-21T21:18:23.512Z,100591.28
2023-08-21T21:21:25.903Z,100583.44
2023-08-21T21:24:29.665Z,100577.78
2023-08-21T21:27:32.190Z,100594.28
2023-08-21T21:30:34.461Z,100579.94
2023-08-21T21:33:36.687Z,100591.41
2023-08-21T21:36:43.476Z,100575.13
2023-08-21T21:39:45.706Z,100585.25
2023-08-21T21:42:47.898Z,100577.31
2023-08-21T21:45:59.577Z,100579.59
2023-08-21T21:49:03.697Z,100573.97
2023-08-21T21:52:05.943Z,100589.22
2023-08-21T21:55:09.329Z,100581.97
2023-08-21T21:58:11.569Z,100593.97
2023-08-21T22:01:13.934Z,100581.94
2023-08-21T22:04:16.186Z,100594.31
2023-08-21T22:07:18.461Z,100595.78
2023-08-21T22:10:20.677Z,100602.50
2023-08-21T22:13:23.032Z,100613.16
2023-08-21T22:16:25.310Z,100604.47
2023-08-21T22:19:27.543Z,100599.97
2023-08-21T22:22:29.763Z,100605.66
2023-08-21T22:25:32.183Z,100615.53
2023-08-21T22:28:34.342Z,100610.38
2023-08-21T22:31:42.534Z,100597.50
2023-08-21T22:34:46.570Z,100598.31
2023-08-21T22:37:48.822Z,100590.06
2023-08-21T22:40:51.032Z,100577.66
2023-08-21T22:43:53.251Z,100584.09
2023-08-21T22:46:55.470Z,100592.97
2023-08-21T22:50:00.187Z,100588.47
2023-08-21T22:53:05.240Z,100587.25
2023-08-21T22:56:07.836Z,100583.25
2023-08-21T22:59:11.042Z,100594.84
2023-08-21T23:02:13.325Z,100598.84
2023-08-21T23:05:15.695Z,100586.13
2023-08-21T23:08:17.918Z,100590.13
2023-08-21T23:11:20.349Z,100589.69
2023-08-21T23:14:22.604Z,100593.41
2023-08-21T23:17:24.941Z,100591.25
2023-08-21T23:20:27.206Z,100587.69
2023-08-21T23:23:29.858Z,100594.94
2023-08-21T23:26:32.027Z,100579.66
2023-08-21T23:29:34.642Z,100584.47
2023-08-21T23:32:36.832Z,100587.84
2023-08-21T23:35:39.783Z,100579.25
2023-08-21T23:38:42.674Z,100574.31
2023-08-21T23:41:45.611Z,100570.13
2023-08-21T23:44:47.806Z,100570.00
2023-08-21T23:47:50.245Z,100566.66
2023-08-21T23:50:52.544Z,100570.66
2023-08-21T23:53:54.802Z,100566.81
2023-08-21T23:56:56.972Z,100559.19
2023-08-21T23:59:59.284Z,100561.19
